Time;durP1;ratioP1;P1;durP2;ratioP2;P2;SDS_P1;SDS_P2;PMS_P1;PMS_P2;Temp;Humidity;BMP_temperature;BMP_pressure;BME280_temperature;BME280_humidity;BME280_pressure;Samples;Min_cycle;Max_cycle;Signal;HPM_P1;HPM_P2
2021/04/25 00:01:50;;;;;;;0.50;0.40;;;;;;;4.98;71.31;101804.19;5034403;28;20505;-67
2021/04/25 00:04:16;;;;;;;0.50;0.40;;;;;;;4.86;71.37;101809.56;5034428;28;20467;-66
2021/04/25 00:06:43;;;;;;;0.50;0.50;;;;;;;4.83;70.88;101806.53;5034771;28;20453;-66
2021/04/25 00:09:09;;;;;;;0.50;0.40;;;;;;;4.95;72.13;101802.78;5034266;28;20944;-66
2021/04/25 00:11:35;;;;;;;1.53;0.60;;;;;;;5.06;71.73;101807.34;5034578;28;20463;-67
2021/04/25 00:14:02;;;;;;;0.40;0.30;;;;;;;4.98;72.72;101796.97;5034468;28;20458;-67
2021/04/25 00:16:28;;;;;;;0.80;0.47;;;;;;;4.96;73.46;101787.53;5034479;28;20540;-66
2021/04/25 00:18:57;;;;;;;0.53;0.40;;;;;;;5.04;73.01;101789.84;5034118;28;20944;-66
2021/04/25 00:21:23;;;;;;;1.37;0.67;;;;;;;4.99;73.39;101792.41;5034370;28;20467;-67
2021/04/25 00:23:50;;;;;;;4.63;0.53;;;;;;;5.14;73.16;101791.97;5034315;28;21010;-67
2021/04/25 00:26:16;;;;;;;1.00;0.70;;;;;;;5.31;72.74;101791.00;5034412;28;20456;-66
2021/04/25 00:28:42;;;;;;;1.00;0.50;;;;;;;5.29;72.87;101798.47;5034132;28;20472;-66
2021/04/25 00:31:08;;;;;;;0.40;0.30;;;;;;;5.36;72.91;101801.03;5033965;28;20459;-66
2021/04/25 00:33:35;;;;;;;0.60;0.60;;;;;;;5.22;73.16;101788.88;5034116;28;20435;-67
2021/04/25 00:36:01;;;;;;;4.30;0.80;;;;;;;5.24;72.38;101784.94;5033926;28;20489;-66
2021/04/25 00:38:27;;;;;;;0.70;0.50;;;;;;;5.21;72.88;101785.38;5034039;28;20447;-66
2021/04/25 00:40:53;;;;;;;0.60;0.37;;;;;;;5.20;72.57;101778.38;5033911;28;20556;-67
2021/04/25 00:43:20;;;;;;;0.77;0.77;;;;;;;5.21;72.67;101780.00;5033564;28;20534;-66
2021/04/25 00:45:46;;;;;;;0.40;0.30;;;;;;;5.14;74.04;101782.03;5033960;28;20457;-66
2021/04/25 00:48:11;;;;;;;1.43;0.57;;;;;;;5.23;73.34;101777.94;5033796;28;20439;-66
2021/04/25 00:50:38;;;;;;;2.30;0.80;;;;;;;5.39;72.74;101780.94;5033794;28;21002;-66
2021/04/25 00:53:05;;;;;;;0.60;0.50;;;;;;;5.21;72.32;101776.50;5033800;28;20505;-66
2021/04/25 00:55:32;;;;;;;2.20;0.30;;;;;;;5.10;72.95;101775.50;5033682;28;20482;-66
2021/04/25 00:57:59;;;;;;;0.83;0.83;;;;;;;5.08;72.61;101780.25;5033774;28;20455;-66
2021/04/25 01:00:26;;;;;;;0.50;0.40;;;;;;;5.12;72.58;101781.44;5033313;28;20985;-66
2021/04/25 01:02:52;;;;;;;0.60;0.50;;;;;;;5.29;72.18;101776.97;5033605;28;20447;-66
2021/04/25 01:05:20;;;;;;;0.70;0.50;;;;;;;5.24;71.06;101771.50;5033321;28;20451;-66
2021/04/25 01:07:47;;;;;;;2.60;1.33;;;;;;;5.23;72.00;101774.44;5033500;28;20497;-66
2021/04/25 01:10:15;;;;;;;2.17;1.13;;;;;;;5.30;72.63;101767.84;5033429;28;20474;-67
2021/04/25 01:12:42;;;;;;;0.70;0.57;;;;;;;5.41;72.79;101762.72;5033469;28;20869;-66
2021/04/25 01:15:10;;;;;;;0.77;0.53;;;;;;;5.37;74.00;101769.63;5033322;28;20478;-66
2021/04/25 01:17:39;;;;;;;0.60;0.50;;;;;;;5.41;73.91;101768.91;5033341;28;20435;-66
2021/04/25 01:20:07;;;;;;;1.00;0.73;;;;;;;5.51;74.09;101758.34;5033432;28;20467;-67
2021/04/25 01:22:34;;;;;;;1.73;1.00;;;;;;;5.58;73.05;101763.59;5033389;28;20454;-66
2021/04/25 01:25:00;;;;;;;2.60;1.23;;;;;;;5.60;72.96;101761.47;5033249;28;20443;-66
2021/04/25 01:27:26;;;;;;;0.80;0.50;;;;;;;5.64;72.53;101772.56;5033462;28;20497;-66
2021/04/25 01:29:52;;;;;;;2.00;1.27;;;;;;;5.61;72.65;101763.09;5033176;28;20995;-66
2021/04/25 01:32:18;;;;;;;1.93;1.37;;;;;;;5.68;72.77;101766.47;5033277;28;20442;-67
2021/04/25 01:34:44;;;;;;;1.17;0.87;;;;;;;5.72;72.91;101772.22;5033190;28;20834;-66
2021/04/25 01:37:10;;;;;;;1.27;1.07;;;;;;;5.71;72.29;101771.41;5032892;28;20940;-66
2021/04/25 01:39:37;;;;;;;2.30;1.07;;;;;;;5.75;71.51;101775.22;5033135;28;20446;-66
2021/04/25 01:42:03;;;;;;;0.40;0.40;;;;;;;5.74;70.85;101778.97;5033121;28;20451;-66
2021/04/25 01:44:29;;;;;;;0.80;0.70;;;;;;;5.74;70.92;101773.59;5033160;28;20454;-66
2021/04/25 01:46:55;;;;;;;0.60;0.50;;;;;;;5.74;71.27;101770.91;5033065;28;20888;-66
2021/04/25 01:49:21;;;;;;;1.33;1.00;;;;;;;5.69;71.46;101768.09;5032715;28;20522;-66
2021/04/25 01:51:47;;;;;;;0.60;0.50;;;;;;;5.65;71.30;101769.63;5033033;28;20458;-66
2021/04/25 01:54:13;;;;;;;4.83;1.90;;;;;;;5.75;71.35;101769.84;5033040;28;20446;-67
2021/04/25 01:56:40;;;;;;;1.00;0.70;;;;;;;5.65;71.43;101766.13;5032956;28;20490;-66
2021/04/25 01:59:06;;;;;;;0.83;0.70;;;;;;;5.43;71.81;101765.97;5032984;28;20443;-66
2021/04/25 02:01:33;;;;;;;1.20;1.10;;;;;;;5.36;71.89;101768.78;5032951;28;20540;-66
2021/04/25 02:03:59;;;;;;;1.07;0.87;;;;;;;5.45;72.07;101764.69;5032797;28;20463;-66
2021/04/25 02:06:26;;;;;;;0.57;0.57;;;;;;;5.38;72.70;101774.75;5032971;28;20769;-66
2021/04/25 02:08:52;;;;;;;0.80;0.60;;;;;;;5.38;73.54;101769.38;5035078;28;20451;-66
2021/04/25 02:11:18;;;;;;;2.10;1.63;;;;;;;5.42;74.82;101765.16;5036601;28;20466;-66
2021/04/25 02:13:45;;;;;;;0.87;0.57;;;;;;;5.48;74.60;101763.38;5036662;28;20454;-67
2021/04/25 02:16:13;;;;;;;1.13;0.90;;;;;;;5.29;75.47;101763.53;5036507;28;20482;-66
2021/04/25 02:18:38;;;;;;;1.23;0.60;;;;;;;5.18;75.88;101764.38;5036941;28;20446;-67
2021/04/25 02:21:05;;;;;;;0.70;0.50;;;;;;;5.20;76.12;101753.41;5036546;28;20838;-66
2021/04/25 02:23:31;;;;;;;0.83;0.63;;;;;;;5.09;76.50;101763.13;5036244;28;20956;-67
2021/04/25 02:25:57;;;;;;;0.50;0.50;;;;;;;4.97;76.58;101754.25;5036279;28;20435;-66
2021/04/25 02:28:23;;;;;;;2.20;0.50;;;;;;;4.76;77.49;101748.41;5036325;28;20443;-67
2021/04/25 02:30:50;;;;;;;0.67;0.37;;;;;;;4.65;77.92;101757.28;5036410;28;20469;-66
2021/04/25 02:33:16;;;;;;;0.87;0.60;;;;;;;4.72;77.92;101759.84;5036427;28;20443;-67
2021/04/25 02:35:42;;;;;;;1.17;0.60;;;;;;;4.68;78.39;101751.44;5036268;28;20486;-67
2021/04/25 02:38:08;;;;;;;1.00;0.80;;;;;;;4.56;79.37;101750.63;5036136;28;20971;-67
2021/04/25 02:40:35;;;;;;;0.63;0.53;;;;;;;4.49;79.24;101747.22;5036177;28;20463;-67
2021/04/25 02:43:02;;;;;;;1.10;0.67;;;;;;;4.57;77.06;101751.44;5035881;28;20924;-67
2021/04/25 02:45:29;;;;;;;0.70;0.50;;;;;;;4.55;76.19;101746.28;5036199;28;20450;-66
2021/04/25 02:47:58;;;;;;;2.27;0.67;;;;;;;4.38;76.46;101743.47;5036070;28;20454;-67
2021/04/25 02:50:27;;;;;;;6.43;0.70;;;;;;;4.30;77.02;101746.50;5035959;28;20470;-66
2021/04/25 02:52:54;;;;;;;0.40;0.30;;;;;;;4.33;77.07;101737.16;5036029;28;20443;-66
2021/04/25 02:55:20;;;;;;;0.77;0.50;;;;;;;4.27;77.57;101731.69;5035834;28;20510;-66
2021/04/25 02:57:46;;;;;;;0.53;0.53;;;;;;;4.27;76.64;101730.88;5035803;28;20823;-66
2021/04/25 03:00:15;;;;;;;0.40;0.30;;;;;;;4.24;76.91;101731.31;5062156;22;20498;-67
2021/04/25 03:02:41;;;;;;;1.17;1.00;;;;;;;4.24;77.20;101731.31;5036233;28;20428;-67
2021/04/25 03:05:10;;;;;;;0.50;0.50;;;;;;;4.30;77.50;101731.22;5035969;28;20446;-66
2021/04/25 03:07:36;;;;;;;0.73;0.73;;;;;;;4.35;77.23;101737.78;5036172;28;20439;-67
2021/04/25 03:10:02;;;;;;;0.77;0.50;;;;;;;4.55;77.16;101738.25;5035805;28;20459;-67
2021/04/25 03:12:28;;;;;;;0.70;0.70;;;;;;;4.77;77.74;101741.97;5035752;28;20447;-68
2021/04/25 03:14:54;;;;;;;0.70;0.40;;;;;;;4.85;77.22;101748.06;5036396;28;20490;-67
2021/04/25 03:17:20;;;;;;;1.83;0.50;;;;;;;4.90;77.35;101746.31;5035746;28;20539;-68
2021/04/25 03:19:46;;;;;;;0.83;0.50;;;;;;;4.94;77.05;101741.28;5034542;28;20450;-65
2021/04/25 03:22:13;;;;;;;0.70;0.70;;;;;;;4.83;77.87;101748.31;5035507;28;20457;-66
2021/04/25 03:24:39;;;;;;;2.00;0.73;;;;;;;4.70;78.43;101733.25;5035513;28;20439;-66
2021/04/25 03:27:05;;;;;;;0.50;0.50;;;;;;;4.79;78.58;101742.59;5035572;28;20489;-67
2021/04/25 03:29:32;;;;;;;0.83;0.60;;;;;;;4.80;78.58;101749.56;5035375;28;20443;-67
2021/04/25 03:31:58;;;;;;;1.53;0.60;;;;;;;4.98;77.87;101742.44;5035384;28;20471;-66
2021/04/25 03:34:24;;;;;;;0.50;0.40;;;;;;;5.08;77.26;101745.34;5035257;28;20522;-67
2021/04/25 03:36:50;;;;;;;0.80;0.70;;;;;;;4.81;77.45;101756.56;5035243;28;20493;-66
2021/04/25 03:39:17;;;;;;;0.80;0.70;;;;;;;4.62;78.38;101754.25;5035330;28;20447;-67
2021/04/25 03:41:43;;;;;;;1.00;0.70;;;;;;;4.72;77.63;101760.66;5035220;28;20466;-66
2021/04/25 03:44:09;;;;;;;7.37;0.97;;;;;;;4.72;77.00;101759.84;5035170;28;20438;-67
2021/04/25 03:46:36;;;;;;;1.33;0.77;;;;;;;4.81;76.63;101753.06;5034967;28;20526;-66
2021/04/25 03:49:03;;;;;;;1.03;0.70;;;;;;;4.84;74.77;101759.84;5035061;28;20458;-67
2021/04/25 03:51:30;;;;;;;0.70;0.70;;;;;;;4.93;74.83;101766.50;5036235;28;20988;-68
2021/04/25 03:53:56;;;;;;;0.40;0.30;;;;;;;5.02;74.09;101759.72;5036217;28;20455;-67
2021/04/25 03:56:23;;;;;;;0.83;0.70;;;;;;;4.94;72.77;101760.91;5036223;28;20849;-68
2021/04/25 03:58:49;;;;;;;1.00;0.90;;;;;;;4.94;73.23;101763.56;5035891;28;20462;-67
2021/04/25 04:01:15;;;;;;;0.50;0.50;;;;;;;5.05;73.10;101764.63;5034768;28;20510;-67
2021/04/25 04:03:41;;;;;;;0.40;0.40;;;;;;;5.14;74.01;101773.16;5035481;28;20451;-67
2021/04/25 04:06:07;;;;;;;0.40;0.40;;;;;;;5.10;73.53;101763.94;5035457;28;20462;-68
2021/04/25 04:08:33;;;;;;;0.40;0.40;;;;;;;5.01;73.86;101764.28;5035482;28;21014;-68
2021/04/25 04:10:59;;;;;;;1.33;0.70;;;;;;;5.00;74.62;101768.03;5035423;28;20470;-68
2021/04/25 04:13:25;;;;;;;0.50;0.40;;;;;;;4.96;74.98;101766.06;5035328;28;20439;-68
2021/04/25 04:15:51;;;;;;;0.90;0.60;;;;;;;5.13;74.99;101761.56;5035090;28;20486;-68
2021/04/25 04:18:17;;;;;;;1.73;0.87;;;;;;;5.28;74.20;101769.97;5035242;28;20466;-68
2021/04/25 04:20:43;;;;;;;0.50;0.40;;;;;;;5.26;74.83;101758.63;5035107;28;20549;-68
2021/04/25 04:23:09;;;;;;;0.50;0.40;;;;;;;5.37;74.38;101766.94;5035378;28;20492;-68
2021/04/25 04:25:35;;;;;;;1.80;0.50;;;;;;;5.31;74.69;101768.66;5035332;28;20868;-68
2021/04/25 04:28:01;;;;;;;0.40;0.33;;;;;;;5.38;74.53;101761.31;5035246;28;20443;-67
2021/04/25 04:30:28;;;;;;;2.17;2.07;;;;;;;5.32;73.59;101767.63;5034799;28;20481;-67
2021/04/25 04:32:54;;;;;;;0.50;0.50;;;;;;;5.34;74.11;101770.06;5034280;28;20449;-68
2021/04/25 04:35:20;;;;;;;0.40;0.30;;;;;;;5.43;73.70;101768.66;5035651;28;20483;-67
2021/04/25 04:37:46;;;;;;;0.50;0.50;;;;;;;5.49;73.00;101767.69;5035359;28;20435;-67
2021/04/25 04:40:14;;;;;;;2.20;0.77;;;;;;;5.60;72.57;101766.03;5034208;28;20988;-67
2021/04/25 04:42:39;;;;;;;0.77;0.60;;;;;;;5.54;73.24;101765.94;5033851;28;20823;-67
2021/04/25 04:45:07;;;;;;;4.00;0.70;;;;;;;5.48;72.35;101766.06;5034037;28;20444;-67
2021/04/25 04:47:34;;;;;;;1.23;0.40;;;;;;;5.49;73.07;101770.38;5034029;28;20449;-67
2021/04/25 04:49:59;;;;;;;1.70;0.43;;;;;;;5.53;72.48;101760.78;5033460;28;20887;-67
2021/04/25 04:52:25;;;;;;;0.70;0.60;;;;;;;5.71;71.64;101767.84;5034010;28;20435;-67
2021/04/25 04:54:51;;;;;;;0.90;0.50;;;;;;;5.74;70.90;101770.91;5033409;28;20452;-66
2021/04/25 04:57:17;;;;;;;0.70;0.60;;;;;;;5.72;70.06;101770.34;5033610;28;20447;-66
2021/04/25 04:59:43;;;;;;;3.40;0.60;;;;;;;5.72;69.54;101769.50;5033482;28;20459;-66
2021/04/25 05:02:09;;;;;;;0.50;0.40;;;;;;;5.85;69.64;101774.63;5034130;28;20450;-66
2021/04/25 05:04:36;;;;;;;0.40;0.40;;;;;;;5.68;69.72;101766.47;5033917;28;20458;-66
2021/04/25 05:07:02;;;;;;;1.00;0.90;;;;;;;5.65;69.86;101766.13;5033751;28;20439;-66
2021/04/25 05:09:28;;;;;;;1.03;0.97;;;;;;;5.68;69.49;101771.88;5033761;28;20561;-67
2021/04/25 05:11:55;;;;;;;1.90;0.60;;;;;;;5.77;68.78;101764.22;5033662;28;20547;-66
2021/04/25 05:14:21;;;;;;;1.10;0.73;;;;;;;5.75;67.81;101761.78;5033819;28;20470;-67
2021/04/25 05:16:47;;;;;;;0.50;0.40;;;;;;;5.80;67.93;101764.56;5033628;28;20992;-66
2021/04/25 05:19:13;;;;;;;1.40;1.10;;;;;;;6.01;67.79;101767.66;5033426;28;20932;-67
2021/04/25 05:21:40;;;;;;;0.50;0.40;;;;;;;6.05;68.61;101771.50;5033463;28;20463;-66
2021/04/25 05:24:08;;;;;;;1.37;0.90;;;;;;;6.13;67.90;101762.22;5033499;28;20854;-67
2021/04/25 05:26:34;;;;;;;0.50;0.40;;;;;;;6.24;67.18;101769.41;5033658;28;20470;-66
2021/04/25 05:29:00;;;;;;;1.33;1.23;;;;;;;6.26;66.85;101770.81;5033370;28;20587;-68
2021/04/25 05:31:26;;;;;;;2.30;0.77;;;;;;;6.39;65.17;101777.75;5033549;28;20463;-67
2021/04/25 05:33:52;;;;;;;0.67;0.57;;;;;;;6.40;65.07;101767.81;5033359;28;20451;-68
2021/04/25 05:36:18;;;;;;;0.70;0.43;;;;;;;6.41;65.42;101775.63;5033756;28;20528;-67
2021/04/25 05:38:45;;;;;;;0.50;0.50;;;;;;;6.50;65.14;101776.03;5034861;28;20451;-64
2021/04/25 05:41:11;;;;;;;0.57;0.57;;;;;;;6.41;64.74;101782.88;5035544;28;20533;-64
2021/04/25 05:43:37;;;;;;;0.67;0.40;;;;;;;6.46;64.77;101785.66;5035997;28;20942;-66
2021/04/25 05:46:03;;;;;;;2.30;1.50;;;;;;;6.45;65.61;101787.53;5040519;28;20448;-64
2021/04/25 05:48:29;;;;;;;0.87;0.80;;;;;;;6.53;65.15;101791.72;5041244;28;20462;-64
2021/04/25 05:50:55;;;;;;;1.50;0.40;;;;;;;6.60;64.69;101792.38;5041493;28;20972;-65
2021/04/25 05:53:21;;;;;;;0.60;0.60;;;;;;;6.66;64.92;101801.34;5040104;28;20937;-64
2021/04/25 05:55:47;;;;;;;0.97;0.80;;;;;;;6.77;65.07;101785.13;5039375;28;20490;-64
2021/04/25 05:58:13;;;;;;;2.20;0.73;;;;;;;6.82;64.26;101785.19;5039456;28;20443;-63
2021/04/25 06:00:40;;;;;;;0.73;0.73;;;;;;;6.88;64.11;101785.25;5040179;28;20513;-64
2021/04/25 06:03:06;;;;;;;0.60;0.60;;;;;;;6.96;63.24;101793.75;5039330;28;20451;-63
2021/04/25 06:05:32;;;;;;;0.80;0.50;;;;;;;7.00;62.40;101792.19;5039320;28;20450;-64
2021/04/25 06:07:57;;;;;;;0.60;0.50;;;;;;;7.15;61.55;101796.16;5038328;28;20801;-64
2021/04/25 06:10:24;;;;;;;0.77;0.50;;;;;;;7.18;60.11;101793.78;5037603;28;20473;-64
2021/04/25 06:12:51;;;;;;;2.83;1.37;;;;;;;7.28;60.31;101801.19;5038420;28;20447;-65
2021/04/25 06:15:19;;;;;;;0.73;0.73;;;;;;;7.33;60.13;101796.69;5038091;28;20988;-64
2021/04/25 06:17:45;;;;;;;0.97;0.60;;;;;;;7.39;58.77;101794.03;5038539;28;20450;-64
2021/04/25 06:20:12;;;;;;;1.10;0.77;;;;;;;7.39;57.75;101800.25;5038262;28;20467;-64
2021/04/25 06:22:38;;;;;;;2.70;0.67;;;;;;;7.39;57.63;101805.63;5038128;28;20453;-64
2021/04/25 06:25:05;;;;;;;1.57;0.80;;;;;;;7.43;57.73;101795.19;5036784;28;20443;-64
2021/04/25 06:27:31;;;;;;;0.50;0.33;;;;;;;7.48;57.86;101806.03;5036518;28;20446;-64
2021/04/25 06:29:58;;;;;;;0.83;0.50;;;;;;;7.54;58.15;101799.66;5036508;28;20443;-64
2021/04/25 06:32:24;;;;;;;0.70;0.67;;;;;;;7.66;58.76;101807.59;5036801;28;20443;-63
2021/04/25 06:34:50;;;;;;;0.70;0.60;;;;;;;7.75;57.67;101800.72;5036425;28;20869;-66
2021/04/25 06:37:16;;;;;;;3.90;0.67;;;;;;;7.82;56.56;101802.13;5036319;28;21064;-66
2021/04/25 06:39:42;;;;;;;0.70;0.37;;;;;;;7.87;55.75;101805.97;5036374;28;20492;-67
2021/04/25 06:42:08;;;;;;;0.50;0.40;;;;;;;7.98;55.88;101810.41;5036550;28;20493;-66
2021/04/25 06:44:34;;;;;;;0.57;0.47;;;;;;;8.02;55.11;101808.84;5036163;28;20450;-66
2021/04/25 06:47:01;;;;;;;0.50;0.40;;;;;;;8.05;55.55;101802.91;5036271;28;20439;-66
2021/04/25 06:49:28;;;;;;;0.83;0.40;;;;;;;8.07;56.09;101808.91;5036175;28;20497;-66
2021/04/25 06:51:54;;;;;;;0.63;0.53;;;;;;;8.15;55.97;101808.44;5036214;28;20886;-67
2021/04/25 06:54:20;;;;;;;0.97;0.73;;;;;;;8.18;55.44;101812.50;5036241;28;20446;-65
2021/04/25 06:56:46;;;;;;;5.83;0.60;;;;;;;8.13;54.35;101821.34;5036037;28;20475;-66
2021/04/25 06:59:12;;;;;;;0.50;0.40;;;;;;;7.98;53.65;101824.72;5036499;28;20442;-65
2021/04/25 07:01:38;;;;;;;0.40;0.30;;;;;;;7.98;54.17;101823.91;5035920;28;20485;-66
2021/04/25 07:04:05;;;;;;;0.50;0.30;;;;;;;8.04;55.34;101814.78;5035770;28;20526;-66
2021/04/25 07:06:31;;;;;;;0.67;0.67;;;;;;;8.09;54.07;101810.25;5036214;28;20450;-66
2021/04/25 07:08:57;;;;;;;3.00;1.37;;;;;;;8.13;54.11;101815.16;5035893;28;20443;-66
2021/04/25 07:11:23;;;;;;;0.57;0.57;;;;;;;8.19;54.16;101814.97;5035888;28;20462;-66
2021/04/25 07:13:49;;;;;;;0.50;0.40;;;;;;;8.26;54.12;101817.44;5035498;28;20458;-65
2021/04/25 07:16:15;;;;;;;1.23;0.60;;;;;;;8.39;54.14;101817.06;5036102;28;20483;-65
2021/04/25 07:18:41;;;;;;;0.63;0.43;;;;;;;8.40;53.85;101807.88;5036036;28;20454;-66
2021/04/25 07:21:08;;;;;;;0.50;0.30;;;;;;;8.40;53.23;101815.19;5035725;28;20463;-66
2021/04/25 07:23:34;;;;;;;1.23;1.13;;;;;;;8.44;53.46;101810.91;5035488;28;20970;-66
2021/04/25 07:26:00;;;;;;;0.83;0.30;;;;;;;8.41;53.01;101814.09;5035919;28;20435;-66
2021/04/25 07:28:26;;;;;;;5.23;0.70;;;;;;;8.51;52.96;101816.91;5035751;28;20443;-66
2021/04/25 07:30:53;;;;;;;6.33;0.80;;;;;;;8.58;52.54;101817.50;5035507;28;20497;-66
2021/04/25 07:33:21;;;;;;;0.87;0.50;;;;;;;8.56;52.05;101816.94;5035534;28;20450;-66
2021/04/25 07:35:47;;;;;;;0.60;0.40;;;;;;;8.57;52.08;101832.06;5035473;28;20487;-66
2021/04/25 07:38:14;;;;;;;0.50;0.40;;;;;;;8.67;52.60;101829.44;5035089;28;20970;-66
2021/04/25 07:40:41;;;;;;;2.70;0.57;;;;;;;8.82;53.02;101832.28;5035004;28;20467;-66
2021/04/25 07:43:07;;;;;;;0.40;0.30;;;;;;;8.89;51.78;101828.56;5034924;28;21004;-66
2021/04/25 07:45:34;;;;;;;0.70;0.60;;;;;;;9.01;51.40;101823.78;5035204;28;20448;-66
2021/04/25 07:48:00;;;;;;;0.50;0.40;;;;;;;9.15;52.71;101838.47;5034811;28;20944;-66
2021/04/25 07:50:26;;;;;;;0.50;0.37;;;;;;;9.21;52.45;101833.91;5034991;28;20478;-66
2021/04/25 07:52:52;;;;;;;1.67;0.50;;;;;;;8.94;51.81;101836.69;5034691;28;20440;-66
2021/04/25 07:55:19;;;;;;;1.13;0.90;;;;;;;9.12;52.45;101833.59;5034848;28;20568;-66
2021/04/25 07:57:45;;;;;;;0.50;0.37;;;;;;;9.38;52.49;101841.84;5034607;28;20442;-66
2021/04/25 08:00:14;;;;;;;0.50;0.50;;;;;;;9.31;51.02;101842.09;5034653;28;20913;-66
2021/04/25 08:02:40;;;;;;;0.67;0.40;;;;;;;9.54;51.30;101838.16;5034941;28;20493;-67
2021/04/25 08:05:08;;;;;;;1.07;0.80;;;;;;;9.87;51.42;101836.94;5034555;28;20934;-67
2021/04/25 08:07:34;;;;;;;0.50;0.40;;;;;;;10.12;50.94;101836.22;5035186;28;20504;-66
2021/04/25 08:10:00;;;;;;;0.90;0.67;;;;;;;9.95;48.77;101846.44;5035004;28;21057;-66
2021/04/25 08:12:27;;;;;;;0.80;0.50;;;;;;;10.18;49.26;101842.44;5034917;28;20435;-65
2021/04/25 08:14:53;;;;;;;0.70;0.43;;;;;;;10.21;48.73;101850.84;5034593;28;20443;-67
2021/04/25 08:17:19;;;;;;;0.90;0.60;;;;;;;10.09;48.85;101848.41;5034538;28;20544;-65
2021/04/25 08:19:45;;;;;;;0.83;0.73;;;;;;;10.12;50.21;101849.75;5034823;28;20447;-65
2021/04/25 08:22:11;;;;;;;0.47;0.40;;;;;;;10.26;49.15;101848.19;5036710;28;20815;-65
2021/04/25 08:24:37;;;;;;;0.80;0.60;;;;;;;10.05;47.36;101847.31;5034922;28;20489;-66
2021/04/25 08:27:03;;;;;;;0.70;0.60;;;;;;;10.14;48.22;101852.19;5035626;28;20466;-67
2021/04/25 08:29:30;;;;;;;0.60;0.50;;;;;;;10.06;49.63;101850.81;5035619;28;20447;-69
2021/04/25 08:31:56;;;;;;;0.60;0.43;;;;;;;10.29;49.62;101853.06;5034226;28;20471;-70
2021/04/25 08:34:22;;;;;;;0.43;0.40;;;;;;;10.35;49.68;101856.59;5034552;28;20457;-68
2021/04/25 08:36:48;;;;;;;0.60;0.40;;;;;;;10.25;48.90;101859.28;5034137;28;20483;-67
2021/04/25 08:39:14;;;;;;;0.87;0.40;;;;;;;10.12;48.56;101876.81;5034103;28;20450;-66
2021/04/25 08:41:40;;;;;;;1.13;0.60;;;;;;;10.01;48.03;101869.75;5034086;28;20516;-66
2021/04/25 08:44:08;;;;;;;1.60;0.67;;;;;;;9.88;49.84;101876.47;5034197;28;20466;-66
2021/04/25 08:46:36;;;;;;;0.80;0.50;;;;;;;9.92;52.03;101869.44;5034062;28;20443;-66
2021/04/25 08:49:03;;;;;;;2.40;0.90;;;;;;;9.97;51.19;101876.78;5034005;28;20794;-66
2021/04/25 08:51:29;;;;;;;0.97;0.87;;;;;;;10.21;52.67;101877.13;5033807;28;20471;-66
2021/04/25 08:53:55;;;;;;;0.77;0.77;;;;;;;9.98;52.58;101879.22;5033179;28;20450;-66
2021/04/25 08:56:21;;;;;;;0.43;0.30;;;;;;;9.71;52.63;101882.06;5033717;28;20585;-66
2021/04/25 08:58:48;;;;;;;0.70;0.70;;;;;;;9.68;53.96;101874.47;5033480;28;20799;-66
2021/04/25 09:01:15;;;;;;;0.70;0.67;;;;;;;10.06;53.30;101881.41;5062235;22;20510;-70
2021/04/25 09:03:41;;;;;;;0.90;0.70;;;;;;;10.09;52.82;101883.59;5047286;28;20809;-71
2021/04/25 09:06:11;;;;;;;0.50;0.40;;;;;;;10.45;52.37;101889.13;5053217;28;20434;-71
2021/04/25 09:08:48;;;;;;;0.80;0.60;;;;;;;10.31;52.83;101888.00;5047361;28;20481;-71
2021/04/25 09:11:26;;;;;;;0.50;0.37;;;;;;;10.05;53.42;101889.81;5033030;28;21003;-71
2021/04/25 09:14:14;;;;;;;1.43;0.90;;;;;;;10.20;54.48;101891.75;5040719;28;20491;-71
2021/04/25 09:16:41;;;;;;;1.33;1.23;;;;;;;10.06;54.51;101886.81;5052850;28;21081;-71
2021/04/25 09:19:07;;;;;;;0.87;0.83;;;;;;;10.16;54.38;101890.66;5053000;28;20446;-70
2021/04/25 09:21:33;;;;;;;0.53;0.40;;;;;;;9.98;55.01;101894.63;5051552;28;20469;-71
2021/04/25 09:24:19;;;;;;;1.00;0.60;;;;;;;9.51;55.72;101892.75;5053256;28;20443;-73
2021/04/25 09:26:45;;;;;;;0.53;0.30;;;;;;;9.25;56.56;101892.63;5053182;28;20422;-70
2021/04/25 09:29:11;;;;;;;0.77;0.60;;;;;;;9.33;56.88;101889.41;5052316;28;20453;-69
2021/04/25 09:31:40;;;;;;;0.70;0.60;;;;;;;9.37;58.34;101883.50;5052692;28;20470;-71
2021/04/25 09:34:06;;;;;;;0.40;0.30;;;;;;;9.34;57.97;101884.81;5052422;28;20482;-70
2021/04/25 09:36:33;;;;;;;0.60;0.50;;;;;;;8.73;55.73;101890.56;5053049;28;20490;-70
2021/04/25 09:39:10;;;;;;;0.50;0.40;;;;;;;8.71;56.97;101884.59;5052610;28;20453;-70
2021/04/25 09:41:36;;;;;;;0.87;0.40;;;;;;;8.72;57.18;101886.25;5052879;28;20474;-70
2021/04/25 09:44:03;;;;;;;0.70;0.67;;;;;;;8.91;56.15;101880.47;5052395;28;20825;-70
2021/04/25 09:46:51;;;;;;;0.80;0.47;;;;;;;9.13;54.97;101885.78;5052940;28;20441;-70
2021/04/25 09:49:38;;;;;;;0.70;0.70;;;;;;;9.22;54.84;101873.41;5052816;28;20466;-70
2021/04/25 09:52:05;;;;;;;1.17;0.40;;;;;;;9.34;53.94;101880.25;5052544;28;20462;-70
2021/04/25 09:54:32;;;;;;;0.90;0.50;;;;;;;9.62;54.05;101880.94;5052408;28;20438;-70
2021/04/25 09:56:59;;;;;;;1.27;1.17;;;;;;;9.83;52.44;101882.69;5052482;28;20490;-71
2021/04/25 09:59:25;;;;;;;0.50;0.40;;;;;;;10.13;52.12;101881.16;5052932;28;20550;-70
2021/04/25 10:02:02;;;;;;;0.57;0.57;;;;;;;10.42;52.27;101872.59;5052112;28;20477;-70
2021/04/25 10:04:30;;;;;;;0.60;0.50;;;;;;;10.48;51.83;101877.75;5052918;28;20431;-70
2021/04/25 10:06:57;;;;;;;0.53;0.47;;;;;;;10.57;51.65;101870.72;5051828;28;20488;-70
2021/04/25 10:09:25;;;;;;;0.93;0.93;;;;;;;10.59;51.74;101867.75;5052713;28;20825;-72
2021/04/25 10:11:52;;;;;;;0.57;0.40;;;;;;;10.65;51.76;101868.56;5052498;28;20467;-72
2021/04/25 10:14:19;;;;;;;0.50;0.40;;;;;;;10.48;49.58;101869.63;5052154;28;20794;-71
2021/04/25 10:16:45;;;;;;;0.50;0.30;;;;;;;10.56;48.83;101860.97;5052124;28;20497;-71
2021/04/25 10:19:13;;;;;;;1.50;0.53;;;;;;;10.51;49.17;101862.88;5052105;28;20450;-71
2021/04/25 10:21:40;;;;;;;0.73;0.50;;;;;;;10.48;49.91;101860.69;5052258;28;21002;-71
2021/04/25 10:24:08;;;;;;;0.60;0.60;;;;;;;10.51;48.84;101860.16;5051792;28;20447;-71
2021/04/25 10:26:40;;;;;;;0.70;0.40;;;;;;;10.53;46.11;101853.38;5052241;28;20438;-72
2021/04/25 10:29:08;;;;;;;0.50;0.30;;;;;;;10.27;43.83;101863.38;5051108;28;20533;-72
2021/04/25 10:31:36;;;;;;;0.63;0.43;;;;;;;10.39;43.65;101854.16;5056338;28;20833;-71
2021/04/25 10:34:05;;;;;;;0.40;0.30;;;;;;;10.53;41.74;101850.66;5056012;28;20470;-72
2021/04/25 10:37:03;;;;;;;0.40;0.30;;;;;;;10.68;42.27;101855.28;5055927;28;21029;-72
2021/04/25 10:39:38;;;;;;;0.50;0.50;;;;;;;10.66;43.08;101857.44;5053636;28;21016;-72
2021/04/25 10:42:37;;;;;;;4.13;0.50;;;;;;;10.78;42.83;101855.28;5055744;28;20465;-72
2021/04/25 10:45:17;;;;;;;0.57;0.50;;;;;;;10.92;42.78;101854.75;5056150;28;20426;-72
2021/04/25 10:47:46;;;;;;;0.77;0.77;;;;;;;10.75;42.84;101847.69;5055930;28;20438;-72
2021/04/25 10:50:45;;;;;;;0.50;0.40;;;;;;;10.67;43.18;101859.09;5055999;28;20449;-72
2021/04/25 10:53:23;;;;;;;1.83;0.53;;;;;;;10.93;44.55;101840.91;5052952;28;20508;-72
2021/04/25 10:55:51;;;;;;;0.40;0.37;;;;;;;10.91;44.18;101847.72;5055764;28;20535;-72
2021/04/25 10:58:22;;;;;;;0.40;0.30;;;;;;;11.13;44.38;101850.94;5055034;28;20446;-72
2021/04/25 11:00:48;;;;;;;0.40;0.30;;;;;;;11.55;43.70;101849.75;5055579;28;20478;-71
2021/04/25 11:03:41;;;;;;;0.60;0.40;;;;;;;11.80;42.04;101838.81;5048774;28;20792;-72
2021/04/25 11:06:27;;;;;;;0.47;0.33;;;;;;;12.00;42.20;101839.84;5035571;28;20427;-71
2021/04/25 11:08:53;;;;;;;0.83;0.50;;;;;;;12.20;42.02;101841.63;5054926;28;20453;-71
2021/04/25 11:11:33;;;;;;;0.40;0.30;;;;;;;12.01;41.22;101833.31;5055597;28;20466;-71
2021/04/25 11:14:01;;;;;;;0.47;0.33;;;;;;;11.82;42.33;101833.09;5055119;28;20438;-71
2021/04/25 11:16:29;;;;;;;0.50;0.37;;;;;;;11.98;40.71;101844.72;5055186;28;20492;-71
2021/04/25 11:18:59;;;;;;;0.60;0.40;;;;;;;12.47;40.54;101843.91;5054194;28;20478;-71
2021/04/25 11:21:47;;;;;;;0.70;0.40;;;;;;;13.76;38.73;101843.19;5054414;28;20466;-71
2021/04/25 11:24:38;;;;;;;0.60;0.60;;;;;;;14.51;36.41;101844.38;5052282;28;20462;-71
2021/04/25 11:27:06;;;;;;;0.40;0.30;;;;;;;14.61;36.13;101855.16;5050072;28;20909;-72
2021/04/25 11:29:56;;;;;;;1.47;0.57;;;;;;;14.76;35.69;101851.34;5055010;28;20927;-71
2021/04/25 11:32:38;;;;;;;0.67;0.30;;;;;;;15.01;35.74;101840.03;5054822;28;20523;-72
2021/04/25 11:35:13;;;;;;;0.50;0.40;;;;;;;14.75;36.44;101844.28;5055128;28;20477;-72